Time;durP1;ratioP1;P1;durP2;ratioP2;P2;SDS_P1;SDS_P2;PMS_P1;PMS_P2;Temp;Humidity;BMP_temperature;BMP_pressure;BME280_temperature;BME280_humidity;BME280_pressure;Samples;Min_cycle;Max_cycle;Signal;HPM_P1;HPM_P2
2023/08/04 00:00:54;;;;;;;3.15;1.80;;;20.80;75.80;;;;;;10323598;28;20045;-56
2023/08/04 00:05:54;;;;;;;3.33;2.10;;;20.80;75.80;;;;;;10323447;28;20025;-56
2023/08/04 00:10:55;;;;;;;4.68;2.22;;;20.80;75.80;;;;;;10323634;28;20032;-56
2023/08/04 00:16:07;;;;;;;2.78;2.08;;;20.70;75.70;;;;;;10342861;28;20640;-56
2023/08/04 00:21:07;;;;;;;4.18;2.08;;;20.70;75.70;;;;;;10364265;28;20030;-56
2023/08/04 00:26:08;;;;;;;5.20;1.88;;;20.80;75.70;;;;;;10364004;28;20025;-56
2023/08/04 00:31:12;;;;;;;3.88;2.05;;;20.70;75.70;;;;;;10364005;28;20026;-56
2023/08/04 00:36:13;;;;;;;3.45;2.10;;;20.70;75.60;;;;;;10362422;28;20026;-56
2023/08/04 00:41:14;;;;;;;3.65;1.65;;;20.70;75.60;;;;;;10363626;28;20121;-56
2023/08/04 00:46:16;;;;;;;4.57;2.40;;;20.70;75.60;;;;;;10367056;28;20038;-56
2023/08/04 00:51:16;;;;;;;3.85;2.13;;;20.70;75.60;;;;;;10371183;28;20483;-56
2023/08/04 00:56:17;;;;;;;2.80;1.30;;;20.70;75.50;;;;;;10355612;28;20022;-55
2023/08/04 01:01:18;;;;;;;4.15;2.33;;;20.70;75.50;;;;;;10330819;28;20069;-56
2023/08/04 01:06:55;;;;;;;4.80;2.20;;;20.70;75.40;;;;;;10330151;28;20109;-56
2023/08/04 01:12:13;;;;;;;4.10;1.80;;;20.70;75.50;;;;;;10330003;28;20592;-56
2023/08/04 01:17:29;;;;;;;2.58;1.80;;;20.60;75.30;;;;;;10358330;28;20030;-56
2023/08/04 01:22:29;;;;;;;2.60;1.70;;;20.60;75.30;;;;;;10370036;28;20034;-56
2023/08/04 01:27:37;;;;;;;5.18;2.05;;;20.60;75.40;;;;;;10369799;28;20031;-56
2023/08/04 01:32:37;;;;;;;3.38;2.15;;;20.60;75.40;;;;;;10368300;28;20021;-56
2023/08/04 01:37:38;;;;;;;3.95;1.67;;;20.60;75.30;;;;;;10369645;28;20356;-56
2023/08/04 01:42:40;;;;;;;2.60;1.50;;;20.60;75.30;;;;;;10369204;28;20041;-56
2023/08/04 01:47:41;;;;;;;3.47;2.55;;;20.60;75.30;;;;;;10369558;28;20390;-56
2023/08/04 01:52:42;;;;;;;4.72;1.98;;;20.60;75.30;;;;;;10344398;28;20057;-56
2023/08/04 01:57:43;;;;;;;3.63;2.15;;;20.60;75.30;;;;;;10340600;28;20015;-56
2023/08/04 02:02:43;;;;;;;4.60;2.10;;;20.60;75.20;;;;;;10328193;28;20042;-56
2023/08/04 02:07:44;;;;;;;3.15;1.73;;;20.60;75.20;;;;;;10327870;28;20122;-56
2023/08/04 02:12:45;;;;;;;5.13;2.03;;;20.60;75.30;;;;;;10328152;28;20053;-55
2023/08/04 02:17:45;;;;;;;3.35;1.55;;;20.60;75.20;;;;;;10361563;28;20028;-56
2023/08/04 02:22:46;;;;;;;4.45;1.50;;;20.60;75.20;;;;;;10368133;28;20163;-56
2023/08/04 02:27:47;;;;;;;3.80;1.63;;;20.60;75.20;;;;;;10367685;28;20075;-56
2023/08/04 02:32:47;;;;;;;3.40;1.83;;;20.60;75.20;;;;;;10367593;28;20673;-56
2023/08/04 02:37:48;;;;;;;4.28;1.58;;;20.60;75.20;;;;;;10367221;28;20030;-56
2023/08/04 02:42:49;;;;;;;2.95;1.75;;;20.60;75.20;;;;;;10367005;28;20045;-55
2023/08/04 02:47:49;;;;;;;4.32;2.30;;;20.50;75.10;;;;;;10366614;28;20156;-56
2023/08/04 02:52:50;;;;;;;5.00;2.05;;;20.50;75.10;;;;;;10366649;28;20632;-56
2023/08/04 02:57:50;;;;;;;2.83;1.90;;;20.60;75.20;;;;;;10337759;28;20058;-56
2023/08/04 03:02:51;;;;;;;2.83;1.63;;;20.50;75.10;;;;;;10330238;28;20072;-56
2023/08/04 03:07:52;;;;;;;3.90;1.65;;;20.50;75.10;;;;;;10364802;28;20062;-56
2023/08/04 03:12:52;;;;;;;3.97;2.08;;;20.50;75.00;;;;;;10365732;28;20033;-55
2023/08/04 03:17:53;;;;;;;3.42;1.70;;;20.60;75.10;;;;;;10330866;28;20058;-55
2023/08/04 03:22:54;;;;;;;3.38;1.83;;;20.50;75.00;;;;;;10323547;28;20126;-56
2023/08/04 03:27:54;;;;;;;3.33;1.90;;;20.50;75.00;;;;;;10347591;28;20463;-56
2023/08/04 03:32:55;;;;;;;3.28;2.20;;;20.50;75.00;;;;;;10365357;28;20149;-56
2023/08/04 03:37:56;;;;;;;3.20;1.67;;;20.50;75.00;;;;;;10365406;28;20028;-56
2023/08/04 03:42:57;;;;;;;4.97;1.80;;;20.50;75.00;;;;;;10363474;28;20046;-56
2023/08/04 03:47:58;;;;;;;3.55;2.33;;;20.50;75.00;;;;;;10365157;28;20389;-55
2023/08/04 03:52:58;;;;;;;2.22;1.60;;;20.50;75.00;;;;;;10355215;28;20633;-56
2023/08/04 03:57:59;;;;;;;3.38;1.90;;;20.50;75.00;;;;;;10327026;28;20114;-56
2023/08/04 04:03:00;;;;;;;2.90;2.10;;;20.50;75.00;;;;;;10332527;28;20113;-54
2023/08/04 04:08:00;;;;;;;3.25;1.70;;;20.50;75.00;;;;;;10362087;28;20416;-55
2023/08/04 04:13:02;;;;;;;4.75;2.20;;;20.50;75.00;;;;;;10335521;28;20564;-55
2023/08/04 04:18:03;;;;;;;3.20;1.60;;;20.50;75.00;;;;;;10357846;28;20033;-56
2023/08/04 04:23:04;;;;;;;2.45;1.77;;;20.50;75.00;;;;;;10368369;28;20056;-56
2023/08/04 04:28:05;;;;;;;4.72;2.30;;;20.50;75.00;;;;;;10370468;28;20545;-56
2023/08/04 04:33:05;;;;;;;2.60;1.90;;;20.40;74.90;;;;;;10367026;28;20148;-56
2023/08/04 04:38:06;;;;;;;4.20;2.42;;;20.40;75.00;;;;;;10343397;28;20038;-55
2023/08/04 04:43:07;;;;;;;3.88;1.42;;;20.40;74.90;;;;;;10341623;28;20144;-55
2023/08/04 04:48:08;;;;;;;3.67;2.08;;;20.40;74.90;;;;;;10336514;28;20018;-56
2023/08/04 04:53:09;;;;;;;3.83;1.75;;;20.40;74.90;;;;;;10334646;28;20029;-56
2023/08/04 04:58:12;;;;;;;3.00;1.65;;;20.40;74.90;;;;;;10345486;28;20023;-56
2023/08/04 05:03:12;;;;;;;4.10;1.95;;;20.40;74.90;;;;;;10349046;28;20570;-57
2023/08/04 05:08:13;;;;;;;2.97;1.65;;;20.50;75.00;;;;;;10330367;28;20110;-56
2023/08/04 05:13:14;;;;;;;9.80;3.95;;;20.50;75.20;;;;;;10336272;28;20018;-55
2023/08/04 05:18:16;;;;;;;5.07;2.38;;;20.70;75.60;;;;;;10366888;28;20544;-57
2023/08/04 05:23:16;;;;;;;5.80;2.13;;;20.90;74.60;;;;;;10330967;28;20097;-56
2023/08/04 05:28:24;;;;;;;4.40;1.90;;;20.90;75.40;;;;;;10327465;28;20030;-55
2023/08/04 05:33:25;;;;;;;6.88;2.20;;;20.90;75.10;;;;;;10329026;28;20029;-55
2023/08/04 05:38:26;;;;;;;6.60;2.65;;;20.90;75.10;;;;;;10363217;28;20531;-56
2023/08/04 05:43:27;;;;;;;8.40;2.85;;;20.90;75.10;;;;;;10358453;28;20057;-56
2023/08/04 05:48:29;;;;;;;5.47;2.15;;;20.90;75.70;;;;;;10328903;28;20547;-56
2023/08/04 05:53:30;;;;;;;6.75;2.78;;;20.90;75.40;;;;;;10334885;28;20018;-56
2023/08/04 05:58:30;;;;;;;16.83;3.08;;;20.80;75.50;;;;;;10368127;28;20470;-56
2023/08/04 06:03:31;;;;;;;24.70;3.58;;;20.80;75.60;;;;;;10360861;28;20121;-56
2023/08/04 06:08:32;;;;;;;17.50;4.25;;;20.80;75.90;;;;;;10360973;28;20532;-55
2023/08/04 06:13:34;;;;;;;12.55;3.35;;;20.70;75.80;;;;;;10355326;28;20054;-55
2023/08/04 06:18:35;;;;;;;13.73;3.38;;;20.80;75.90;;;;;;10367210;28;20457;-55
2023/08/04 06:23:35;;;;;;;16.15;3.67;;;20.70;75.80;;;;;;10368176;28;20026;-56
2023/08/04 06:28:36;;;;;;;15.25;3.90;;;20.70;76.00;;;;;;10368178;28;20018;-57
2023/08/04 06:33:37;;;;;;;19.55;4.57;;;20.80;76.00;;;;;;10367895;28;20707;-58
2023/08/04 06:38:37;;;;;;;8.40;3.22;;;20.70;75.70;;;;;;10366297;28;20100;-56
2023/08/04 06:43:38;;;;;;;6.00;2.67;;;20.70;75.80;;;;;;10362971;28;20152;-55
2023/08/04 06:48:39;;;;;;;14.00;3.13;;;20.70;75.90;;;;;;10364595;28;20117;-55
2023/08/04 06:53:39;;;;;;;18.45;3.70;;;20.60;75.70;;;;;;10363793;28;20504;-55
2023/08/04 06:58:41;;;;;;;16.63;2.97;;;20.60;75.80;;;;;;10354143;28;20060;-55
2023/08/04 07:03:47;;;;;;;16.23;3.85;;;20.70;75.90;;;;;;10339409;28;20066;-56
2023/08/04 07:08:48;;;;;;;14.13;3.85;;;20.70;75.90;;;;;;10329068;28;20124;-55
2023/08/04 07:13:48;;;;;;;23.98;3.70;;;20.80;75.90;;;;;;10325575;28;20116;-53
2023/08/04 07:18:49;;;;;;;18.90;3.78;;;20.80;75.90;;;;;;10363873;28;20097;-54
2023/08/04 07:23:49;;;;;;;16.05;3.50;;;20.80;75.90;;;;;;10362837;28;20280;-55
2023/08/04 07:28:50;;;;;;;12.57;3.90;;;20.80;76.10;;;;;;10344020;28;20018;-54
2023/08/04 07:33:51;;;;;;;25.08;4.80;;;20.80;76.10;;;;;;10335785;28;20029;-55
2023/08/04 07:38:52;;;;;;;18.23;4.05;;;20.80;76.30;;;;;;10322635;28;20584;-55
2023/08/04 07:43:52;;;;;;;15.40;4.45;;;20.80;76.10;;;;;;10328146;28;20034;-55
2023/08/04 07:48:54;;;;;;;9.70;3.50;;;20.80;76.00;;;;;;10338546;28;20019;-55
2023/08/04 07:53:54;;;;;;;11.55;4.65;;;20.80;75.90;;;;;;10314302;28;20446;-54
2023/08/04 07:58:55;;;;;;;12.43;3.47;;;20.80;75.90;;;;;;10324979;28;20019;-55
2023/08/04 08:03:56;;;;;;;12.98;3.33;;;20.80;75.80;;;;;;10321641;28;20034;-55
2023/08/04 08:08:56;;;;;;;10.82;3.92;;;20.80;75.80;;;;;;10320317;28;20153;-54
2023/08/04 08:13:57;;;;;;;9.10;3.28;;;20.80;75.80;;;;;;10325322;28;20101;-55
2023/08/04 08:18:58;;;;;;;9.40;3.35;;;20.80;75.70;;;;;;10362553;28;20097;-54
2023/08/04 08:23:58;;;;;;;8.10;3.05;;;20.80;75.70;;;;;;10361703;28;20115;-55
2023/08/04 08:29:01;;;;;;;8.75;3.28;;;20.80;75.70;;;;;;10361938;28;20018;-55
2023/08/04 08:34:01;;;;;;;11.27;3.47;;;20.80;75.80;;;;;;10361508;28;20175;-56
2023/08/04 08:39:02;;;;;;;8.15;2.72;;;20.80;75.70;;;;;;10362155;28;20091;-55
2023/08/04 08:44:03;;;;;;;7.43;2.80;;;20.80;75.50;;;;;;10361540;28;20037;-55
2023/08/04 08:49:04;;;;;;;7.95;2.65;;;20.80;75.50;;;;;;10361557;28;20033;-55
2023/08/04 08:54:06;;;;;;;7.55;3.10;;;20.80;75.50;;;;;;10360469;28;20026;-55
2023/08/04 08:59:07;;;;;;;5.55;2.40;;;20.80;75.60;;;;;;10322759;28;20018;-55
2023/08/04 09:04:08;;;;;;;4.22;2.20;;;20.80;75.60;;;;;;10320350;28;20505;-54
2023/08/04 09:09:10;;;;;;;5.45;2.67;;;20.80;75.50;;;;;;10326986;28;20100;-55
2023/08/04 09:14:10;;;;;;;6.90;3.53;;;20.80;75.40;;;;;;10332990;28;20050;-54
2023/08/04 09:19:11;;;;;;;5.60;2.55;;;20.80;75.60;;;;;;10368126;28;20029;-55
2023/08/04 09:24:15;;;;;;;4.13;2.35;;;20.80;76.10;;;;;;10368007;28;20537;-55
2023/08/04 09:29:15;;;;;;;5.50;2.70;;;20.80;75.40;;;;;;10367987;28;20806;-55
2023/08/04 09:34:16;;;;;;;6.72;2.83;;;20.80;75.40;;;;;;10368087;28;20050;-55
2023/08/04 09:39:17;;;;;;;7.95;2.25;;;20.80;75.40;;;;;;10368326;28;20074;-55
2023/08/04 09:44:18;;;;;;;4.78;2.63;;;20.80;75.50;;;;;;10367558;28;20042;-55
2023/08/04 09:49:20;;;;;;;6.20;2.80;;;20.80;75.30;;;;;;10367638;28;20018;-55
2023/08/04 09:54:20;;;;;;;5.18;2.33;;;20.80;75.30;;;;;;10366958;28;20083;-55
2023/08/04 09:59:22;;;;;;;4.32;2.00;;;20.80;75.30;;;;;;10332154;28;20165;-54
2023/08/04 10:04:24;;;;;;;6.18;2.55;;;20.80;75.30;;;;;;10324897;28;20026;-54
2023/08/04 10:09:26;;;;;;;5.07;2.53;;;20.80;75.30;;;;;;10324698;28;20359;-54
2023/08/04 10:14:27;;;;;;;5.90;2.30;;;20.80;75.20;;;;;;10333354;28;20485;-55
2023/08/04 10:19:28;;;;;;;6.35;2.22;;;20.80;75.20;;;;;;10365361;28;20022;-53
2023/08/04 10:24:29;;;;;;;3.42;1.65;;;20.80;75.30;;;;;;10365813;28;20492;-55
2023/08/04 10:29:34;;;;;;;4.03;1.88;;;20.80;75.30;;;;;;10366164;28;20022;-55
2023/08/04 10:34:41;;;;;;;4.13;2.55;;;20.90;75.30;;;;;;10364279;28;20481;-54
2023/08/04 10:39:56;;;;;;;3.35;1.60;;;20.90;75.20;;;;;;10363908;28;20082;-55
2023/08/04 10:45:05;;;;;;;5.55;2.45;;;20.90;75.20;;;;;;10364956;28;20022;-55
2023/08/04 10:50:07;;;;;;;3.55;1.77;;;20.90;75.20;;;;;;10365583;28;20017;-55
2023/08/04 10:55:11;;;;;;;3.25;1.77;;;20.90;75.20;;;;;;10345405;28;20034;-55
2023/08/04 11:00:14;;;;;;;3.60;2.25;;;20.90;75.00;;;;;;10324133;28;20088;-55
2023/08/04 11:05:14;;;;;;;3.67;1.73;;;20.90;75.10;;;;;;10324199;28;20069;-54
2023/08/04 11:10:15;;;;;;;3.85;2.13;;;20.90;75.10;;;;;;10323941;28;20481;-55
2023/08/04 11:15:16;;;;;;;2.55;1.88;;;21.00;75.00;;;;;;10337494;28;20413;-55
2023/08/04 11:20:17;;;;;;;2.40;1.73;;;21.00;74.90;;;;;;10364190;28;20119;-54
2023/08/04 11:25:18;;;;;;;4.40;2.05;;;21.00;74.90;;;;;;10378846;28;20025;-55
2023/08/04 11:30:18;;;;;;;2.80;1.58;;;21.00;74.90;;;;;;10363325;28;20037;-55
2023/08/04 11:35:20;;;;;;;4.72;1.80;;;21.00;74.90;;;;;;10363951;28;20026;-56
2023/08/04 11:40:23;;;;;;;4.10;1.88;;;21.10;74.90;;;;;;10362876;28;20073;-54
2023/08/04 11:45:24;;;;;;;3.30;2.00;;;21.00;74.80;;;;;;10361744;28;20109;-55
2023/08/04 11:50:25;;;;;;;2.88;1.55;;;21.00;74.80;;;;;;10362820;28;20500;-56
2023/08/04 11:55:26;;;;;;;3.85;1.80;;;21.00;74.80;;;;;;10353534;28;20019;-55
2023/08/04 12:00:37;;;;;;;3.33;1.65;;;21.00;74.90;;;;;;10322223;28;20026;-55
2023/08/04 12:05:38;;;;;;;2.80;1.75;;;21.00;75.00;;;;;;10320317;28;20046;-55
2023/08/04 12:10:40;;;;;;;2.05;1.35;;;21.00;75.00;;;;;;10320699;28;20048;-56
2023/08/04 12:15:53;;;;;;;2.50;1.48;;;21.00;74.90;;;;;;10338984;28;20026;-55
2023/08/04 12:20:56;;;;;;;2.45;1.33;;;21.00;75.10;;;;;;10362257;28;20037;-56
2023/08/04 12:25:57;;;;;;;2.50;1.67;;;20.90;75.10;;;;;;10362689;28;20030;-56
2023/08/04 12:30:58;;;;;;;3.65;1.50;;;21.00;75.20;;;;;;10361987;28;20077;-55
2023/08/04 12:35:58;;;;;;;2.53;1.67;;;21.00;75.10;;;;;;10362074;28;20113;-55
2023/08/04 12:40:59;;;;;;;2.22;1.65;;;21.00;75.10;;;;;;10363631;28;20048;-55
2023/08/04 12:46:00;;;;;;;2.42;2.03;;;21.00;75.10;;;;;;10369423;28;20014;-55
2023/08/04 12:51:00;;;;;;;2.58;1.50;;;21.00;75.10;;;;;;10369507;28;20364;-54
2023/08/04 12:56:01;;;;;;;2.45;1.38;;;21.00;75.10;;;;;;10354034;28;20026;-55
2023/08/04 13:01:02;;;;;;;2.85;1.60;;;21.00;75.00;;;;;;10328965;28;20114;-54
2023/08/04 13:06:04;;;;;;;2.55;1.48;;;21.10;75.60;;;;;;10328512;28;20025;-54
2023/08/04 13:11:04;;;;;;;3.20;1.67;;;21.10;75.00;;;;;;10328193;28;20032;-54
2023/08/04 13:16:05;;;;;;;2.20;1.30;;;21.10;75.00;;;;;;10348851;28;20033;-54
2023/08/04 13:21:06;;;;;;;2.67;1.30;;;21.10;74.80;;;;;;10368444;28;20037;-55
2023/08/04 13:26:07;;;;;;;3.05;1.30;;;21.10;74.90;;;;;;10368619;28;20028;-55
2023/08/04 13:31:12;;;;;;;2.00;1.42;;;21.10;74.90;;;;;;10368891;28;20459;-55
2023/08/04 13:36:12;;;;;;;2.72;1.52;;;21.10;74.90;;;;;;10367813;28;20477;-55
2023/08/04 13:41:13;;;;;;;2.50;1.70;;;21.10;74.90;;;;;;10368025;28;20045;-54
2023/08/04 13:46:14;;;;;;;2.50;1.50;;;21.10;74.90;;;;;;10367747;28;20192;-55
2023/08/04 13:51:15;;;;;;;1.95;1.15;;;21.10;74.90;;;;;;10366986;28;20604;-54
2023/08/04 13:56:15;;;;;;;2.53;1.20;;;21.10;74.90;;;;;;10350394;28;20084;-54
2023/08/04 14:01:16;;;;;;;3.13;1.60;;;21.10;74.90;;;;;;10326594;28;20113;-54
2023/08/04 14:06:17;;;;;;;2.80;1.42;;;21.10;74.90;;;;;;10325693;28;20029;-55
2023/08/04 14:11:18;;;;;;;2.08;1.20;;;21.10;74.90;;;;;;10326148;28;20018;-54
2023/08/04 14:16:19;;;;;;;2.88;1.33;;;21.10;74.80;;;;;;10348466;28;20022;-55
2023/08/04 14:21:19;;;;;;;2.22;1.40;;;21.10;74.90;;;;;;10366109;28;20030;-58
2023/08/04 14:26:20;;;;;;;8.00;1.73;;;21.10;74.90;;;;;;10366596;28;20029;-55
2023/08/04 14:31:21;;;;;;;7.68;2.08;;;21.10;75.20;;;;;;10367547;28;20453;-56
2023/08/04 14:36:21;;;;;;;11.00;2.35;;;21.10;75.00;;;;;;10367264;28;20459;-56
2023/08/04 14:41:22;;;;;;;9.43;2.20;;;21.10;75.20;;;;;;10364941;28;20073;-56
2023/08/04 14:46:23;;;;;;;20.48;3.50;;;21.10;75.10;;;;;;10365353;28;20046;-55
2023/08/04 14:51:23;;;;;;;27.27;3.90;;;21.20;75.20;;;;;;10364804;28;20104;-56
2023/08/04 14:56:24;;;;;;;7.57;2.25;;;21.30;75.20;;;;;;10347952;28;20019;-56
2023/08/04 15:01:25;;;;;;;7.88;2.03;;;21.30;75.10;;;;;;10324781;28;20031;-58
2023/08/04 15:06:25;;;;;;;8.30;3.60;;;21.30;75.30;;;;;;10327976;28;20065;-58
2023/08/04 15:11:26;;;;;;;10.50;3.17;;;21.20;75.20;;;;;;10364654;28;20021;-58
2023/08/04 15:16:27;;;;;;;8.00;2.40;;;21.30;74.40;;;;;;10362138;28;20026;-59
2023/08/04 15:21:27;;;;;;;11.73;4.53;;;21.20;74.20;;;;;;10338265;28;20046;-58
2023/08/04 15:26:28;;;;;;;9.90;4.85;;;21.30;74.80;;;;;;10325013;28;20026;-56
2023/08/04 15:31:29;;;;;;;10.07;4.30;;;21.40;75.20;;;;;;10333461;28;20022;-56
2023/08/04 15:36:29;;;;;;;7.53;3.75;;;21.40;74.90;;;;;;10364839;28;20466;-56
2023/08/04 15:41:30;;;;;;;5.85;2.78;;;21.50;74.90;;;;;;10364936;28;20085;-56
2023/08/04 15:46:31;;;;;;;17.60;5.78;;;21.60;75.10;;;;;;10365043;28;20052;-56
2023/08/04 15:51:31;;;;;;;7.72;3.55;;;21.70;75.20;;;;;;10364556;28;20033;-55
2023/08/04 15:56:32;;;;;;;15.30;4.60;;;21.70;74.80;;;;;;10354770;28;20354;-57
2023/08/04 16:01:33;;;;;;;21.35;4.68;;;21.60;74.80;;;;;;10342209;28;20128;-57
2023/08/04 16:06:33;;;;;;;9.45;3.90;;;21.50;75.40;;;;;;10349340;28;20046;-56
2023/08/04 16:11:34;;;;;;;15.98;3.55;;;21.60;74.40;;;;;;10323873;28;20029;-56
2023/08/04 16:16:35;;;;;;;12.68;3.15;;;21.80;75.10;;;;;;10347651;28;20028;-57
2023/08/04 16:21:35;;;;;;;16.92;4.03;;;21.80;74.20;;;;;;10363890;28;20029;-56
2023/08/04 16:26:36;;;;;;;15.38;3.35;;;21.70;75.20;;;;;;10363211;28;20359;-59
2023/08/04 16:31:37;;;;;;;13.00;3.97;;;21.70;75.00;;;;;;10363628;28;20026;-59
2023/08/04 16:36:38;;;;;;;11.70;3.58;;;21.60;75.20;;;;;;10362185;28;20022;-60
2023/08/04 16:41:38;;;;;;;15.60;3.38;;;21.50;75.20;;;;;;10361913;28;20065;-60
2023/08/04 16:46:39;;;;;;;10.15;3.30;;;21.50;75.10;;;;;;10361466;28;20125;-60
2023/08/04 16:51:40;;;;;;;10.65;2.70;;;21.40;75.00;;;;;;10362193;28;20056;-60
2023/08/04 16:56:40;;;;;;;9.50;3.05;;;21.40;75.10;;;;;;10342851;28;20102;-60
2023/08/04 17:01:41;;;;;;;13.00;3.67;;;21.40;75.10;;;;;;10320481;28;20254;-60
2023/08/04 17:06:41;;;;;;;6.53;2.72;;;21.40;75.00;;;;;;10321392;28;20105;-59
2023/08/04 17:11:42;;;;;;;7.38;2.95;;;21.40;74.90;;;;;;10322575;28;20054;-58
2023/08/04 17:16:43;;;;;;;5.50;2.33;;;21.40;74.90;;;;;;10347162;28;20662;-56
2023/08/04 17:21:43;;;;;;;7.38;2.55;;;21.40;74.70;;;;;;10360764;28;20092;-58
2023/08/04 17:26:44;;;;;;;10.80;3.33;;;21.40;74.70;;;;;;10363771;28;20018;-57
2023/08/04 17:31:45;;;;;;;8.00;2.70;;;21.40;74.70;;;;;;10369994;28;20097;-56
2023/08/04 17:36:45;;;;;;;7.40;2.45;;;21.40;74.70;;;;;;10370003;28;20052;-57
2023/08/04 17:41:46;;;;;;;10.18;2.50;;;21.40;74.70;;;;;;10368967;28;20045;-57
2023/08/04 17:46:47;;;;;;;7.32;2.28;;;21.30;74.60;;;;;;10368912;28;20054;-57
2023/08/04 17:51:47;;;;;;;6.07;2.22;;;21.30;74.60;;;;;;10369444;28;20421;-55
2023/08/04 17:56:48;;;;;;;6.40;2.58;;;21.30;74.60;;;;;;10346948;28;20092;-57
2023/08/04 18:01:49;;;;;;;5.88;2.05;;;21.30;74.60;;;;;;10345131;28;20109;-57
2023/08/04 18:06:49;;;;;;;4.25;2.33;;;21.30;74.80;;;;;;10368490;28;20099;-57
2023/08/04 18:11:50;;;;;;;4.40;1.80;;;21.30;74.70;;;;;;10364813;28;20113;-55
2023/08/04 18:16:51;;;;;;;6.68;2.20;;;21.20;74.80;;;;;;10353539;28;20050;-58
2023/08/04 18:21:54;;;;;;;7.35;2.08;;;21.30;74.80;;;;;;10366436;28;20042;-56
2023/08/04 18:26:55;;;;;;;5.38;2.65;;;21.30;74.70;;;;;;10367008;28;20355;-58
2023/08/04 18:31:55;;;;;;;8.30;2.00;;;21.20;74.60;;;;;;10366864;28;20062;-58
2023/08/04 18:36:56;;;;;;;6.18;2.78;;;21.20;74.60;;;;;;10377572;28;20338;-57
2023/08/04 18:41:56;;;;;;;5.07;2.15;;;21.20;74.60;;;;;;10363830;28;20042;-57
2023/08/04 18:46:57;;;;;;;5.82;2.30;;;21.30;74.70;;;;;;10366174;28;20152;-56
2023/08/04 18:51:58;;;;;;;8.10;3.17;;;21.30;74.70;;;;;;10360452;28;20117;-57
2023/08/04 18:56:58;;;;;;;3.95;2.20;;;21.30;74.80;;;;;;10351384;28;20112;-57
2023/08/04 19:01:59;;;;;;;5.85;2.10;;;21.20;74.60;;;;;;10354738;28;20029;-56
2023/08/04 19:07:00;;;;;;;5.03;1.98;;;21.20;74.70;;;;;;10337373;28;20114;-57
2023/08/04 19:12:00;;;;;;;4.13;2.28;;;21.20;74.70;;;;;;10325757;28;20493;-57
2023/08/04 19:17:04;;;;;;;5.20;2.25;;;21.20;74.70;;;;;;10340730;28;20034;-57
2023/08/04 19:22:06;;;;;;;3.97;2.45;;;21.10;74.80;;;;;;10348548;28;20037;-56
2023/08/04 19:27:06;;;;;;;5.38;2.40;;;21.10;75.00;;;;;;10359612;28;20121;-56
2023/08/04 19:32:07;;;;;;;5.22;1.77;;;21.10;75.00;;;;;;10333197;28;20022;-56
2023/08/04 19:37:08;;;;;;;6.53;2.00;;;21.10;74.80;;;;;;10326437;28;20062;-57
2023/08/04 19:42:09;;;;;;;5.20;2.13;;;21.20;74.70;;;;;;10360308;28;20102;-59
2023/08/04 19:47:10;;;;;;;3.78;1.85;;;21.10;74.90;;;;;;10361897;28;20026;-57
2023/08/04 19:52:10;;;;;;;7.10;1.80;;;21.10;75.20;;;;;;10351689;28;20030;-57
2023/08/04 19:57:11;;;;;;;7.85;2.88;;;21.10;74.80;;;;;;10336948;28;20692;-57
2023/08/04 20:02:12;;;;;;;4.75;1.63;;;21.10;74.80;;;;;;10323068;28;20034;-57
2023/08/04 20:07:12;;;;;;;6.93;2.65;;;21.00;74.70;;;;;;10324141;28;20629;-57
2023/08/04 20:12:13;;;;;;;5.60;1.95;;;21.00;74.80;;;;;;10323400;28;20068;-57
2023/08/04 20:17:14;;;;;;;2.25;1.58;;;21.00;74.70;;;;;;10353432;28;20022;-57
2023/08/04 20:22:14;;;;;;;4.00;1.77;;;21.00;74.70;;;;;;10362631;28;20061;-57
2023/08/04 20:27:15;;;;;;;4.15;1.90;;;21.00;74.70;;;;;;10364099;28;20100;-57
2023/08/04 20:32:16;;;;;;;4.10;2.03;;;21.00;74.70;;;;;;10363756;28;20396;-57
2023/08/04 20:37:16;;;;;;;3.25;1.80;;;21.00;74.70;;;;;;10362971;28;21371;-57
2023/08/04 20:42:17;;;;;;;4.93;2.80;;;21.00;74.70;;;;;;10363488;28;20064;-57
2023/08/04 20:47:19;;;;;;;4.70;1.70;;;21.00;74.70;;;;;;10363354;28;20010;-57
2023/08/04 20:52:19;;;;;;;2.55;1.73;;;21.00;74.70;;;;;;10363662;28;20101;-57
2023/08/04 20:57:20;;;;;;;3.13;1.55;;;21.00;74.70;;;;;;10339521;28;20784;-56
2023/08/04 21:02:21;;;;;;;3.88;1.90;;;20.90;74.60;;;;;;10324839;28;20030;-57
2023/08/04 21:07:21;;;;;;;3.92;1.80;;;20.90;74.60;;;;;;10330631;28;20046;-57
2023/08/04 21:12:22;;;;;;;4.28;2.00;;;21.00;74.70;;;;;;10330773;28;20104;-57
2023/08/04 21:17:23;;;;;;;3.95;1.77;;;21.00;74.70;;;;;;10360796;28;20025;-56
2023/08/04 21:22:23;;;;;;;4.05;1.92;;;21.00;74.70;;;;;;10371016;28;20150;-57
2023/08/04 21:27:24;;;;;;;3.67;2.17;;;20.90;74.60;;;;;;10370428;28;20076;-57
2023/08/04 21:32:25;;;;;;;3.53;2.03;;;20.90;74.50;;;;;;10370217;28;20032;-56
2023/08/04 21:37:26;;;;;;;4.18;2.10;;;20.90;74.50;;;;;;10369815;28;20018;-56
2023/08/04 21:42:27;;;;;;;3.45;2.20;;;20.90;74.40;;;;;;10369788;28;20377;-57
2023/08/04 21:47:27;;;;;;;3.67;2.33;;;20.90;74.40;;;;;;10369342;28;20021;-57
2023/08/04 21:52:28;;;;;;;3.60;1.90;;;20.90;74.40;;;;;;10369210;28;20500;-57
2023/08/04 21:57:28;;;;;;;3.45;1.98;;;20.90;74.40;;;;;;10343668;28;20630;-56
2023/08/04 22:02:29;;;;;;;3.53;1.90;;;20.90;74.40;;;;;;10328564;28;20061;-57
2023/08/04 22:07:30;;;;;;;2.20;1.73;;;20.90;74.30;;;;;;10328356;28;20105;-57
2023/08/04 22:12:30;;;;;;;3.28;2.35;;;20.90;74.40;;;;;;10327921;28;20023;-57
2023/08/04 22:17:31;;;;;;;4.15;1.92;;;20.90;74.40;;;;;;10359264;28;20109;-57
2023/08/04 22:22:32;;;;;;;3.10;2.08;;;20.90;74.40;;;;;;10367646;28;20037;-57
2023/08/04 22:27:32;;;;;;;3.00;1.70;;;20.90;74.30;;;;;;10367701;28;20097;-57
2023/08/04 22:32:33;;;;;;;3.75;2.00;;;20.90;74.90;;;;;;10368299;28;20672;-56
2023/08/04 22:37:34;;;;;;;3.50;2.20;;;20.90;74.30;;;;;;10367427;28;20022;-56
2023/08/04 22:42:34;;;;;;;3.25;2.10;;;20.90;74.20;;;;;;10367212;28;20042;-57
2023/08/04 22:47:35;;;;;;;2.95;1.85;;;20.90;74.20;;;;;;10366970;28;20053;-57
2023/08/04 22:52:36;;;;;;;3.55;2.03;;;20.90;74.20;;;;;;10366920;28;20026;-57
2023/08/04 22:57:37;;;;;;;3.80;2.00;;;20.90;74.20;;;;;;10340652;28;20015;-57
2023/08/04 23:02:37;;;;;;;3.45;2.10;;;20.80;74.10;;;;;;10326015;28;20042;-57
2023/08/04 23:07:38;;;;;;;3.05;2.13;;;20.80;74.70;;;;;;10325977;28;20772;-57
2023/08/04 23:12:40;;;;;;;3.15;1.88;;;20.90;74.20;;;;;;10325990;28;20037;-57
2023/08/04 23:17:40;;;;;;;4.55;2.05;;;20.80;74.20;;;;;;10358700;28;20030;-57
2023/08/04 23:22:41;;;;;;;3.17;2.00;;;20.80;74.20;;;;;;10364688;28;20108;-57
2023/08/04 23:27:42;;;;;;;3.72;1.83;;;20.80;74.20;;;;;;10364315;28;20018;-57
2023/08/04 23:32:42;;;;;;;2.17;1.80;;;20.80;74.10;;;;;;10365935;28;20054;-57
2023/08/04 23:37:43;;;;;;;4.82;2.30;;;20.80;74.10;;;;;;10366041;28;20069;-57
2023/08/04 23:42:44;;;;;;;2.28;1.58;;;20.90;74.20;;;;;;10364832;28;20142;-57
2023/08/04 23:47:44;;;;;;;3.13;2.08;;;20.80;74.10;;;;;;10364972;28;20400;-57
2023/08/04 23:52:45;;;;;;;2.72;1.98;;;20.80;74.10;;;;;;10364771;28;20396;-57
2023/08/04 23:57:46;;;;;;;3.35;2.10;;;20.80;74.10;;;;;;10337103;28;20049;-57
